createdAt,value
2022-12-12T00:01:34.056Z,94354.16
2022-12-12T00:04:02.850Z,94355.41
2022-12-12T00:06:31.119Z,94345.56
2022-12-12T00:09:00.318Z,94357.69
2022-12-12T00:11:29.018Z,94353.81
2022-12-12T00:13:57.352Z,94351.19
2022-12-12T00:16:25.991Z,94357.13
2022-12-12T00:18:54.616Z,94352.13
2022-12-12T00:21:25.465Z,94361.50
2022-12-12T00:23:53.979Z,94350.63
2022-12-12T00:26:25.575Z,94350.47
2022-12-12T00:28:53.759Z,94358.38
2022-12-12T00:31:22.069Z,94362.59
2022-12-12T00:33:50.402Z,94364.13
2022-12-12T00:36:19.780Z,94349.44
2022-12-12T00:38:47.774Z,94369.34
2022-12-12T00:41:16.160Z,94369.00
2022-12-12T00:43:45.377Z,94373.66
2022-12-12T00:46:14.995Z,94374.84
2022-12-12T00:48:43.078Z,94366.63
2022-12-12T00:51:14.192Z,94364.41
2022-12-12T00:53:41.960Z,94361.09
2022-12-12T00:56:09.723Z,94365.06
2022-12-12T00:58:38.060Z,94376.69
2022-12-12T01:01:11.011Z,94366.78
2022-12-12T01:03:42.439Z,94360.72
2022-12-12T01:06:11.090Z,94353.22
2022-12-12T01:08:39.066Z,94372.50
2022-12-12T01:11:09.919Z,94382.63
2022-12-12T01:13:38.439Z,94377.63
2022-12-12T01:16:07.297Z,94376.97
2022-12-12T01:18:36.918Z,94386.44
2022-12-12T01:21:08.458Z,94379.56
2022-12-12T01:23:36.249Z,94384.06
2022-12-12T01:26:06.083Z,94386.88
2022-12-12T01:28:35.186Z,94380.38
2022-12-12T01:31:03.168Z,94382.34
2022-12-12T01:33:31.225Z,94379.31
2022-12-12T01:36:00.499Z,94387.50
2022-12-12T01:38:28.411Z,94383.00
2022-12-12T01:40:56.273Z,94384.88
2022-12-12T01:43:25.510Z,94384.09
2022-12-12T01:46:33.326Z,94389.25
2022-12-12T01:49:04.739Z,94388.97
2022-12-12T01:51:34.273Z,94385.94
2022-12-12T01:54:05.563Z,94377.50
2022-12-12T01:56:34.053Z,94392.53
2022-12-12T01:59:08.229Z,94389.50
2022-12-12T02:01:37.131Z,94389.38
2022-12-12T02:04:05.617Z,94384.47
2022-12-12T02:06:35.542Z,94392.94
2022-12-12T02:09:07.408Z,94388.72
2022-12-12T02:11:42.319Z,94376.72
2022-12-12T02:14:10.224Z,94387.66
2022-12-12T02:16:51.519Z,94388.69
2022-12-12T02:19:53.377Z,94387.94
2022-12-12T02:22:40.180Z,94392.81
2022-12-12T02:25:36.374Z,94392.16
2022-12-12T02:28:33.799Z,94396.50
2022-12-12T02:31:17.294Z,94402.03
2022-12-12T02:33:52.855Z,94400.31
2022-12-12T02:36:28.244Z,94402.28
2022-12-12T02:39:04.310Z,94407.16
2022-12-12T02:41:39.799Z,94411.47
2022-12-12T02:44:15.899Z,94401.16
2022-12-12T02:46:53.986Z,94409.72
2022-12-12T02:49:27.563Z,94406.13
2022-12-12T02:51:56.866Z,94412.84
2022-12-12T02:54:24.947Z,94412.78
2022-12-12T02:56:55.738Z,94406.59
2022-12-12T02:59:27.295Z,94412.41
2022-12-12T03:02:09.047Z,94410.44
2022-12-12T03:05:08.958Z,94408.31
2022-12-12T03:07:48.318Z,94414.25
2022-12-12T03:10:27.384Z,94409.97
2022-12-12T03:13:04.587Z,94422.84
2022-12-12T03:15:42.905Z,94413.13
2022-12-12T03:18:23.777Z,94414.13
2022-12-12T03:20:58.045Z,94424.22
2022-12-12T03:23:29.177Z,94424.03
2022-12-12T03:26:02.269Z,94411.66
2022-12-12T03:28:34.192Z,94421.84
2022-12-12T03:31:06.785Z,94415.47
2022-12-12T03:33:41.605Z,94419.41
2022-12-12T03:36:17.053Z,94419.47
2022-12-12T03:38:56.889Z,94422.84
2022-12-12T03:41:29.515Z,94417.91
2022-12-12T03:44:03.056Z,94417.84
2022-12-12T03:46:37.457Z,94423.00
2022-12-12T03:49:14.569Z,94408.84
2022-12-12T03:51:47.916Z,94423.50
2022-12-12T03:54:22.174Z,94423.63
2022-12-12T03:56:55.158Z,94424.94
2022-12-12T03:59:27.908Z,94419.06
2022-12-12T04:02:01.327Z,94423.84
2022-12-12T04:04:37.275Z,94419.88
2022-12-12T04:07:13.006Z,94426.25
2022-12-12T04:09:59.069Z,94426.00
2022-12-12T04:12:53.504Z,94423.63
2022-12-12T04:15:41.009Z,94420.94
2022-12-12T04:18:17.838Z,94419.78
2022-12-12T04:21:16.302Z,94429.13
2022-12-12T04:23:53.965Z,94435.03
2022-12-12T04:26:42.360Z,94434.03
2022-12-12T04:29:33.594Z,94432.59
2022-12-12T04:32:09.165Z,94438.31
2022-12-12T04:34:41.745Z,94430.47
2022-12-12T04:37:15.279Z,94438.44
2022-12-12T04:39:45.553Z,94431.97
2022-12-12T04:42:18.236Z,94437.41
2022-12-12T04:44:47.838Z,94439.84
2022-12-12T04:47:16.609Z,94444.53
2022-12-12T04:49:48.157Z,94442.84
2022-12-12T04:52:20.440Z,94445.97
2022-12-12T04:54:52.037Z,94442.91
2022-12-12T04:57:25.080Z,94448.44
2022-12-12T04:59:53.400Z,94450.81
2022-12-12T05:02:33.893Z,94450.03
2022-12-12T05:05:05.434Z,94448.41
2022-12-12T05:07:40.362Z,94454.59
2022-12-12T05:10:11.802Z,94460.38
2022-12-12T05:12:45.681Z,94459.28
2022-12-12T05:15:14.577Z,94467.28
2022-12-12T05:17:45.686Z,94464.94
2022-12-12T05:20:13.807Z,94458.47
2022-12-12T05:22:43.118Z,94462.88
2022-12-12T05:25:12.011Z,94465.00
2022-12-12T05:27:40.232Z,94471.50
2022-12-12T05:30:09.230Z,94468.81
2022-12-12T05:32:37.142Z,94472.66
2022-12-12T05:35:06.028Z,94473.19
2022-12-12T05:37:33.909Z,94472.34
2022-12-12T05:40:03.086Z,94472.69
2022-12-12T05:42:30.888Z,94471.72
2022-12-12T05:44:58.718Z,94479.56
2022-12-12T05:47:26.579Z,94483.66
2022-12-12T05:49:55.317Z,94490.50
2022-12-12T05:52:23.187Z,94489.56
2022-12-12T05:54:51.331Z,94495.84
2022-12-12T05:57:20.477Z,94491.97
2022-12-12T05:59:48.993Z,94498.13
2022-12-12T06:02:17.981Z,94495.25
2022-12-12T06:04:48.919Z,94497.00
2022-12-12T06:07:16.709Z,94494.34
2022-12-12T06:09:44.498Z,94492.50
2022-12-12T06:12:12.263Z,94488.91
2022-12-12T06:14:41.600Z,94498.56
2022-12-12T06:17:09.374Z,94495.53
2022-12-12T06:19:37.192Z,94496.97
2022-12-12T06:22:05.163Z,94500.56
2022-12-12T06:24:33.109Z,94498.56
2022-12-12T06:27:00.950Z,94504.59
2022-12-12T06:29:28.753Z,94504.72
2022-12-12T06:31:57.858Z,94499.88
2022-12-12T06:34:26.120Z,94504.19
2022-12-12T06:36:53.902Z,94510.09
2022-12-12T06:39:21.730Z,94507.16
2022-12-12T06:41:49.580Z,94515.69
2022-12-12T06:44:17.373Z,94505.31
2022-12-12T06:46:45.346Z,94514.09
2022-12-12T06:49:14.544Z,94510.88
2022-12-12T06:51:44.320Z,94524.56
2022-12-12T06:54:12.785Z,94524.16
2022-12-12T06:56:46.307Z,94519.63
2022-12-12T06:59:16.710Z,94528.41
2022-12-12T07:01:45.018Z,94527.69
2022-12-12T07:04:14.980Z,94536.47
2022-12-12T07:06:42.895Z,94546.72
2022-12-12T07:09:12.059Z,94536.78
2022-12-12T07:11:41.136Z,94536.66
2022-12-12T07:14:09.143Z,94535.69
2022-12-12T07:16:36.970Z,94531.50
2022-12-12T07:19:05.312Z,94537.63
2022-12-12T07:21:34.509Z,94531.69
2022-12-12T07:24:02.329Z,94538.00
2022-12-12T07:26:30.189Z,94540.38
2022-12-12T07:28:57.959Z,94529.97
2022-12-12T07:31:26.481Z,94541.28
2022-12-12T07:33:55.462Z,94550.91
2022-12-12T07:36:23.379Z,94544.97
2022-12-12T07:38:52.556Z,94550.47
2022-12-12T07:41:21.556Z,94545.41
2022-12-12T07:43:50.991Z,94544.50
2022-12-12T07:46:21.106Z,94544.97
2022-12-12T07:48:49.158Z,94546.22
2022-12-12T07:51:17.508Z,94555.59
2022-12-12T07:53:45.379Z,94563.50
2022-12-12T07:56:16.511Z,94563.50
2022-12-12T07:58:45.068Z,94569.66
2022-12-12T08:01:15.393Z,94569.66
2022-12-12T08:03:43.778Z,94570.75
2022-12-12T08:06:11.609Z,94569.53
2022-12-12T08:08:39.680Z,94573.47
2022-12-12T08:11:09.432Z,94572.63
2022-12-12T08:13:40.507Z,94567.53
2022-12-12T08:16:13.656Z,94577.22
2022-12-12T08:18:41.555Z,94573.59
2022-12-12T08:21:10.755Z,94573.41
2022-12-12T08:23:38.985Z,94583.03
2022-12-12T08:26:08.525Z,94579.63
2022-12-12T08:28:38.598Z,94577.91
2022-12-12T08:31:06.503Z,94587.78
2022-12-12T08:33:34.412Z,94599.16
2022-12-12T08:36:02.221Z,94588.72
2022-12-12T08:38:30.384Z,94591.94
2022-12-12T08:40:58.245Z,94589.13
2022-12-12T08:43:26.076Z,94594.94
2022-12-12T08:46:00.516Z,94590.97
2022-12-12T08:48:28.493Z,94593.66
2022-12-12T08:50:56.282Z,94600.06
2022-12-12T08:53:24.275Z,94595.28
2022-12-12T08:55:52.238Z,94597.50
2022-12-12T08:58:20.115Z,94599.56
2022-12-12T09:00:47.944Z,94603.94
2022-12-12T09:03:17.857Z,94605.81
2022-12-12T09:05:59.990Z,94603.75
2022-12-12T09:08:27.859Z,94610.91
2022-12-12T09:10:55.714Z,94606.22
2022-12-12T09:13:23.447Z,94609.25
2022-12-12T09:15:52.038Z,94614.06
2022-12-12T09:18:21.907Z,94611.06
2022-12-12T09:20:50.638Z,94613.56
2022-12-12T09:23:18.820Z,94619.81
2022-12-12T09:25:47.150Z,94614.34
2022-12-12T09:28:16.670Z,94613.31
2022-12-12T09:30:45.411Z,94630.38
2022-12-12T09:33:14.348Z,94628.75
2022-12-12T09:35:44.148Z,94614.13
2022-12-12T09:38:14.514Z,94619.59
2022-12-12T09:40:50.564Z,94625.56
2022-12-12T09:43:27.682Z,94628.59
2022-12-12T09:45:57.480Z,94623.03
2022-12-12T09:48:32.260Z,94628.56
2022-12-12T09:51:01.383Z,94626.03
2022-12-12T09:53:29.730Z,94625.47
2022-12-12T09:56:05.368Z,94632.50
2022-12-12T09:58:43.474Z,94640.41
2022-12-12T10:01:22.637Z,94619.50
2022-12-12T10:03:59.663Z,94618.31
2022-12-12T10:06:37.860Z,94621.63
2022-12-12T10:09:24.493Z,94628.22
2022-12-12T10:11:55.364Z,94608.78
2022-12-12T10:14:34.427Z,94615.03
2022-12-12T10:17:04.756Z,94606.28
2022-12-12T10:19:37.139Z,94609.06
2022-12-12T10:22:16.550Z,94605.09
2022-12-12T10:24:49.855Z,94603.09
2022-12-12T10:27:20.382Z,94604.81
2022-12-12T10:29:49.534Z,94606.44
2022-12-12T10:32:30.323Z,94607.88
2022-12-12T10:35:16.951Z,94608.94
2022-12-12T10:37:59.078Z,94607.44
2022-12-12T10:40:39.174Z,94600.88
2022-12-12T10:43:14.862Z,94604.16
2022-12-12T10:45:55.671Z,94596.94
2022-12-12T10:48:23.847Z,94596.03
2022-12-12T10:50:55.283Z,94598.94
2022-12-12T10:53:24.557Z,94592.03
2022-12-12T10:55:54.891Z,94591.53
2022-12-12T10:58:26.532Z,94597.31
2022-12-12T11:01:02.597Z,94601.13
2022-12-12T11:03:34.231Z,94596.00
2022-12-12T11:06:07.393Z,94601.03
2022-12-12T11:08:37.950Z,94598.19
2022-12-12T11:11:09.143Z,94603.38
2022-12-12T11:13:45.348Z,94599.78
2022-12-12T11:16:18.283Z,94595.41
2022-12-12T11:19:00.206Z,94595.22
2022-12-12T11:21:29.939Z,94592.75
2022-12-12T11:24:00.533Z,94589.94
2022-12-12T11:26:30.143Z,94590.53
2022-12-12T11:29:00.849Z,94596.16
2022-12-12T11:31:32.148Z,94591.34
2022-12-12T11:34:02.760Z,94584.88
2022-12-12T11:36:34.461Z,94595.44
2022-12-12T11:39:16.279Z,94589.38
2022-12-12T11:42:00.965Z,94589.09
2022-12-12T11:44:34.346Z,94588.91
2022-12-12T11:47:24.470Z,94586.50
2022-12-12T11:49:54.556Z,94581.81
2022-12-12T11:52:25.277Z,94579.84
2022-12-12T11:54:55.003Z,94582.75
2022-12-12T11:57:35.050Z,94581.28
2022-12-12T12:00:07.489Z,94564.38
2022-12-12T12:03:19.069Z,94573.81
2022-12-12T12:05:58.501Z,94570.91
2022-12-12T12:08:41.922Z,94569.50
2022-12-12T12:11:22.279Z,94566.59
2022-12-12T12:14:04.448Z,94558.88
2022-12-12T12:16:40.774Z,94567.34
2022-12-12T12:19:16.711Z,94567.09
2022-12-12T12:21:56.266Z,94569.94
2022-12-12T12:24:51.991Z,94560.25
2022-12-12T12:27:29.926Z,94565.69
2022-12-12T12:30:14.695Z,94571.09
2022-12-12T12:32:59.803Z,94572.88
2022-12-12T12:35:31.711Z,94569.53
2022-12-12T12:38:17.264Z,94581.97
2022-12-12T12:40:59.946Z,94573.59
2022-12-12T12:43:48.592Z,94569.38
2022-12-12T12:46:23.247Z,94568.13
2022-12-12T12:48:54.721Z,94578.06
2022-12-12T12:51:28.173Z,94572.72
2022-12-12T12:54:02.053Z,94568.97
2022-12-12T12:56:31.919Z,94571.50
2022-12-12T12:59:03.967Z,94565.59
2022-12-12T13:01:36.104Z,94571.88
2022-12-12T13:04:13.139Z,94568.34
2022-12-12T13:06:47.213Z,94566.81
2022-12-12T13:09:25.532Z,94563.28
2022-12-12T13:12:01.695Z,94561.94
2022-12-12T13:14:41.748Z,94558.28
2022-12-12T13:17:16.323Z,94569.41
2022-12-12T13:19:46.595Z,94567.09
2022-12-12T13:22:17.497Z,94571.66
2022-12-12T13:24:53.650Z,94563.53
2022-12-12T13:27:30.042Z,94570.75
2022-12-12T13:30:03.870Z,94567.22
2022-12-12T13:33:03.754Z,94562.03
2022-12-12T13:35:34.521Z,94571.91
2022-12-12T13:38:03.898Z,94577.94
2022-12-12T13:40:33.832Z,94575.38
2022-12-12T13:43:09.528Z,94579.78
2022-12-12T13:45:47.864Z,94561.56
2022-12-12T13:48:46.462Z,94592.75
2022-12-12T13:51:38.816Z,94587.78
2022-12-12T13:54:52.866Z,94578.44
2022-12-12T13:57:34.145Z,94585.31
2022-12-12T14:00:21.456Z,94577.63
2022-12-12T14:03:06.371Z,94573.75
2022-12-12T14:05:39.895Z,94578.63
2022-12-12T14:08:21.237Z,94598.38
2022-12-12T14:10:58.542Z,94591.59
2022-12-12T14:13:35.596Z,94590.94
2022-12-12T14:16:07.923Z,94583.38
2022-12-12T14:18:40.884Z,94578.50
2022-12-12T14:21:12.825Z,94574.00
2022-12-12T14:23:42.697Z,94589.09
2022-12-12T14:26:50.879Z,94579.63
2022-12-12T14:29:27.284Z,94577.28
2022-12-12T14:32:23.810Z,94584.91
2022-12-12T14:35:06.613Z,94600.19
2022-12-12T14:37:51.363Z,94588.28
2022-12-12T14:40:22.911Z,94592.13
2022-12-12T14:43:19.384Z,94599.81
2022-12-12T14:45:54.664Z,94593.84
2022-12-12T14:48:24.801Z,94592.00
2022-12-12T14:50:58.571Z,94598.88
2022-12-12T14:53:32.056Z,94579.06
2022-12-12T14:56:02.917Z,94581.56
2022-12-12T14:58:35.633Z,94579.03
2022-12-12T15:01:05.982Z,94572.19
2022-12-12T15:03:40.119Z,94575.84
2022-12-12T15:06:43.407Z,94569.91
2022-12-12T15:09:25.974Z,94566.44
2022-12-12T15:11:56.229Z,94568.38
2022-12-12T15:14:26.662Z,94571.66
2022-12-12T15:17:01.051Z,94581.69
2022-12-12T15:19:32.040Z,94582.72
2022-12-12T15:22:01.521Z,94585.19
2022-12-12T15:24:37.182Z,94589.84
2022-12-12T15:27:06.786Z,94574.28
2022-12-12T15:29:37.761Z,94572.03
2022-12-12T15:32:09.213Z,94582.25
2022-12-12T15:34:40.164Z,94581.78
2022-12-12T15:37:23.867Z,94570.81
2022-12-12T15:40:01.231Z,94575.09
2022-12-12T15:42:29.938Z,94567.56
2022-12-12T15:44:57.942Z,94586.63
2022-12-12T15:47:26.518Z,94589.56
2022-12-12T15:49:54.962Z,94588.63
2022-12-12T15:52:28.961Z,94587.75
2022-12-12T15:54:59.719Z,94587.09
2022-12-12T15:57:30.656Z,94574.16
2022-12-12T16:00:01.665Z,94589.63
2022-12-12T16:02:36.493Z,94595.56
2022-12-12T16:05:08.691Z,94593.59
2022-12-12T16:07:37.903Z,94592.00
2022-12-12T16:10:23.642Z,94578.25
2022-12-12T16:13:02.892Z,94574.41
2022-12-12T16:15:33.980Z,94581.81
2022-12-12T16:18:04.704Z,94573.78
2022-12-12T16:20:34.298Z,94586.06
2022-12-12T16:23:22.886Z,94586.56
2022-12-12T16:25:51.360Z,94588.63
2022-12-12T16:28:25.600Z,94593.91
2022-12-12T16:30:57.354Z,94598.69
2022-12-12T16:33:29.908Z,94595.88
2022-12-12T16:35:59.425Z,94582.72
2022-12-12T16:38:29.615Z,94591.31
2022-12-12T16:41:00.245Z,94592.72
2022-12-12T16:43:28.653Z,94587.19
2022-12-12T16:45:57.705Z,94587.69
2022-12-12T16:48:27.981Z,94591.41
2022-12-12T16:50:59.017Z,94586.16
2022-12-12T16:53:28.444Z,94591.16
2022-12-12T16:55:56.740Z,94594.91
2022-12-12T16:58:24.904Z,94607.94
2022-12-12T17:00:54.091Z,94599.06
2022-12-12T17:03:24.510Z,94597.44
2022-12-12T17:05:53.377Z,94605.75
2022-12-12T17:08:21.339Z,94608.00
2022-12-12T17:10:53.146Z,94596.09
2022-12-12T17:13:40.307Z,94599.59
2022-12-12T17:16:08.710Z,94606.59
2022-12-12T17:18:36.584Z,94603.81
2022-12-12T17:21:04.547Z,94606.38
2022-12-12T17:23:32.328Z,94607.28
2022-12-12T17:26:04.791Z,94604.84
2022-12-12T17:28:33.648Z,94609.59
2022-12-12T17:31:02.609Z,94605.53
2022-12-12T17:33:30.748Z,94608.94
2022-12-12T17:36:01.142Z,94603.97
2022-12-12T17:38:30.392Z,94603.50
2022-12-12T17:40:58.721Z,94618.28
2022-12-12T17:43:29.144Z,94616.13
2022-12-12T17:46:01.640Z,94605.00
2022-12-12T17:48:31.131Z,94604.53
2022-12-12T17:51:01.113Z,94599.31
2022-12-12T17:53:32.184Z,94597.59
2022-12-12T17:56:01.071Z,94600.66
2022-12-12T17:58:36.730Z,94592.09
2022-12-12T18:01:11.344Z,94605.78
2022-12-12T18:03:39.541Z,94600.63
2022-12-12T18:06:08.216Z,94594.63
2022-12-12T18:08:36.432Z,94597.50
2022-12-12T18:11:07.514Z,94599.69
2022-12-12T18:13:39.590Z,94597.84
2022-12-12T18:16:09.130Z,94604.00
2022-12-12T18:18:37.465Z,94602.06
2022-12-12T18:21:06.664Z,94599.69
2022-12-12T18:23:34.609Z,94600.09
2022-12-12T18:26:04.854Z,94608.41
2022-12-12T18:28:33.019Z,94616.81
2022-12-12T18:31:02.846Z,94612.59
2022-12-12T18:33:30.840Z,94598.66
2022-12-12T18:36:04.825Z,94615.78
2022-12-12T18:38:33.330Z,94611.59
2022-12-12T18:41:01.776Z,94602.97
2022-12-12T18:43:30.744Z,94603.31
2022-12-12T18:46:04.850Z,94614.09
2022-12-12T18:48:35.467Z,94601.84
2022-12-12T18:51:06.727Z,94612.28
2022-12-12T18:53:35.359Z,94622.75
2022-12-12T18:56:07.014Z,94610.00
2022-12-12T18:58:35.449Z,94619.44
2022-12-12T19:01:05.663Z,94614.69
2022-12-12T19:03:34.939Z,94611.59
2022-12-12T19:06:05.916Z,94622.72
2022-12-12T19:08:33.836Z,94621.25
2022-12-12T19:11:02.143Z,94608.56
2022-12-12T19:13:29.983Z,94611.94
2022-12-12T19:15:58.827Z,94612.72
2022-12-12T19:18:28.183Z,94606.59
2022-12-12T19:20:56.030Z,94610.19
2022-12-12T19:23:23.850Z,94613.31
2022-12-12T19:25:51.598Z,94608.09
2022-12-12T19:28:19.493Z,94608.09
2022-12-12T19:30:47.489Z,94610.16
2022-12-12T19:33:15.742Z,94608.44
2022-12-12T19:35:44.908Z,94605.34
2022-12-12T19:38:14.081Z,94598.06
2022-12-12T19:40:41.844Z,94605.91
2022-12-12T19:43:09.632Z,94607.84
2022-12-12T19:45:37.461Z,94603.06
2022-12-12T19:48:05.386Z,94591.03
2022-12-12T19:50:33.192Z,94608.53
2022-12-12T19:53:02.349Z,94604.75
2022-12-12T19:55:30.161Z,94597.97
2022-12-12T19:57:58.016Z,94583.88
2022-12-12T20:00:26.007Z,94600.59
2022-12-12T20:02:53.836Z,94598.41
2022-12-12T20:05:21.732Z,94603.09
2022-12-12T20:07:49.626Z,94597.41
2022-12-12T20:10:18.956Z,94597.06
2022-12-12T20:12:57.832Z,94588.72
2022-12-12T20:15:26.367Z,94588.31
2022-12-12T20:17:54.205Z,94592.94
2022-12-12T20:20:22.122Z,94586.50
2022-12-12T20:23:48.406Z,94588.97
2022-12-12T20:26:19.238Z,94583.03
2022-12-12T20:28:47.878Z,94576.91
2022-12-12T20:31:17.939Z,94578.81
2022-12-12T20:33:46.698Z,94582.81
2022-12-12T20:36:16.879Z,94584.97
2022-12-12T20:38:45.724Z,94583.03
2022-12-12T20:41:16.849Z,94581.22
2022-12-12T20:43:45.931Z,94592.13
2022-12-12T20:46:16.000Z,94576.75
2022-12-12T20:48:44.644Z,94579.53
2022-12-12T20:51:45.501Z,94576.28
2022-12-12T20:54:04.202Z,94580.94
2022-12-12T20:56:33.610Z,94585.69
2022-12-12T20:59:03.262Z,94575.13
2022-12-12T21:01:35.797Z,94582.84
2022-12-12T21:04:08.932Z,94575.59
2022-12-12T21:06:40.113Z,94576.97
2022-12-12T21:09:10.741Z,94582.84
2022-12-12T21:11:40.710Z,94576.03
2022-12-12T21:14:09.097Z,94576.72
2022-12-12T21:16:39.205Z,94562.16
2022-12-12T21:19:11.252Z,94568.16
2022-12-12T21:21:39.451Z,94574.41
2022-12-12T21:24:07.972Z,94578.78
2022-12-12T21:26:35.930Z,94581.78
2022-12-12T21:29:05.922Z,94584.53
2022-12-12T21:31:36.663Z,94584.88
2022-12-12T21:34:05.680Z,94576.94
2022-12-12T21:36:36.350Z,94580.78
2022-12-12T21:39:06.831Z,94573.94
2022-12-12T21:41:35.556Z,94577.94
2022-12-12T21:44:03.386Z,94561.78
2022-12-12T21:46:34.056Z,94559.19
2022-12-12T21:49:19.508Z,94566.97
2022-12-12T21:51:48.538Z,94558.41
2022-12-12T21:54:17.080Z,94563.72
2022-12-12T21:56:45.198Z,94564.50
2022-12-12T21:59:14.114Z,94562.84
2022-12-12T22:01:45.072Z,94568.47
2022-12-12T22:04:14.346Z,94556.53
2022-12-12T22:06:48.527Z,94562.50
2022-12-12T22:09:19.260Z,94572.78
2022-12-12T22:11:50.609Z,94550.56
2022-12-12T22:14:23.385Z,94558.88
2022-12-12T22:16:52.601Z,94570.09
2022-12-12T22:19:20.501Z,94557.00
2022-12-12T22:21:49.390Z,94559.84
2022-12-12T22:24:18.202Z,94564.28
2022-12-12T22:26:47.917Z,94547.84
2022-12-12T22:29:20.119Z,94563.22
2022-12-12T22:31:53.886Z,94570.06
2022-12-12T22:34:24.865Z,94562.09
2022-12-12T22:36:56.511Z,94570.13
2022-12-12T22:39:26.090Z,94562.38
2022-12-12T22:41:55.121Z,94568.25
2022-12-12T22:44:25.663Z,94560.00
2022-12-12T22:46:55.286Z,94561.47
2022-12-12T22:49:26.657Z,94554.47
2022-12-12T22:51:57.615Z,94556.56
2022-12-12T22:54:26.128Z,94556.75
2022-12-12T22:56:54.731Z,94558.03
2022-12-12T22:59:24.926Z,94549.91
2022-12-12T23:01:53.096Z,94552.38
2022-12-12T23:04:21.052Z,94547.22
2022-12-12T23:06:50.288Z,94550.19
2022-12-12T23:09:22.623Z,94555.63
2022-12-12T23:11:50.802Z,94546.97
2022-12-12T23:14:21.604Z,94544.50
2022-12-12T23:16:49.932Z,94533.81
2022-12-12T23:19:20.037Z,94534.81
2022-12-12T23:21:48.534Z,94528.75
2022-12-12T23:24:17.739Z,94525.81
2022-12-12T23:26:46.646Z,94534.84
2022-12-12T23:29:16.856Z,94533.78
2022-12-12T23:31:45.291Z,94534.59
2022-12-12T23:34:16.497Z,94538.53
2022-12-12T23:36:44.823Z,94536.19
2022-12-12T23:39:14.268Z,94514.69
2022-12-12T23:41:43.688Z,94519.88
2022-12-12T23:44:14.547Z,94526.50
2022-12-12T23:46:43.024Z,94518.56
2022-12-12T23:49:16.084Z,94512.00
2022-12-12T23:51:45.715Z,94513.59
2022-12-12T23:54:16.427Z,94516.97
2022-12-12T23:56:46.299Z,94516.09
2022-12-12T23:59:17.876Z,94502.53
